Time;durP1;ratioP1;P1;durP2;ratioP2;P2;SDS_P1;SDS_P2;PMS_P1;PMS_P2;Temp;Humidity;BMP_temperature;BMP_pressure;BME280_temperature;BME280_humidity;BME280_pressure;Samples;Min_cycle;Max_cycle;Signal;HPM_P1;HPM_P2
2021/07/27 00:01:37;;;;;;;7.20;6.50;;;;;;;20.27;71.03;99975.14;1712438;82;22065;-52
2021/07/27 00:04:03;;;;;;;6.92;6.25;;;;;;;20.25;71.09;99970.29;1712972;82;21086;-56
2021/07/27 00:06:30;;;;;;;10.88;6.95;;;;;;;20.25;71.23;99971.66;1714919;82;21121;-55
2021/07/27 00:08:58;;;;;;;12.60;7.50;;;;;;;20.24;71.50;99975.41;1713215;82;21098;-55
2021/07/27 00:11:25;;;;;;;7.35;6.37;;;;;;;20.25;71.73;99972.16;1715450;82;21082;-55
2021/07/27 00:13:51;;;;;;;9.60;6.80;;;;;;;20.25;71.89;99971.66;1714896;82;21098;-52
2021/07/27 00:16:18;;;;;;;7.53;6.83;;;;;;;20.28;72.08;99970.04;1715691;82;21164;-52
2021/07/27 00:18:44;;;;;;;10.10;7.58;;;;;;;20.28;72.08;99964.58;1713455;82;21141;-56
2021/07/27 00:21:11;;;;;;;13.53;9.50;;;;;;;20.30;72.12;99968.05;1716720;82;21094;-55
2021/07/27 00:23:38;;;;;;;12.88;9.53;;;;;;;20.31;72.16;99968.92;1718792;82;21152;-52
2021/07/27 00:26:15;;;;;;;9.43;8.53;;;;;;;20.31;72.19;99965.69;1716090;82;21073;-53
2021/07/27 00:28:42;;;;;;;8.58;7.87;;;;;;;20.32;72.31;99957.86;1714596;82;21066;-55
2021/07/27 00:31:17;;;;;;;8.03;7.22;;;;;;;20.34;72.36;99957.24;1718547;82;21117;-53
2021/07/27 00:33:46;;;;;;;9.13;8.03;;;;;;;20.37;72.40;99960.22;1719863;82;21520;-55
2021/07/27 00:36:13;;;;;;;9.75;7.15;;;;;;;20.37;72.55;99956.13;1716169;81;21089;-53
2021/07/27 00:38:40;;;;;;;6.83;6.20;;;;;;;20.38;72.54;99954.63;1719924;81;21093;-53
2021/07/27 00:41:06;;;;;;;9.08;8.30;;;;;;;20.39;72.55;99950.91;1721667;81;21073;-53
2021/07/27 00:43:33;;;;;;;12.13;8.45;;;;;;;20.39;72.55;99954.13;1719780;81;21081;-55
2021/07/27 00:46:00;;;;;;;9.50;8.33;;;;;;;20.38;72.58;99946.43;1719976;81;22086;-55
2021/07/27 00:48:26;;;;;;;9.95;9.05;;;;;;;20.37;72.52;99952.02;1717583;81;21634;-53
2021/07/27 00:50:54;;;;;;;8.78;7.22;;;;;;;20.35;72.48;99950.78;1718036;81;21825;-53
2021/07/27 00:53:20;;;;;;;7.58;6.90;;;;;;;20.33;72.51;99953.27;1719472;81;21149;-54
2021/07/27 00:55:48;;;;;;;6.97;6.47;;;;;;;20.32;72.50;99952.89;1721774;81;21033;-54
2021/07/27 00:58:15;;;;;;;7.60;6.72;;;;;;;20.31;72.57;99956.13;1725080;81;21509;-53
2021/07/27 01:00:43;;;;;;;9.60;5.83;;;;;;;20.29;72.42;99948.55;1724357;81;21487;-55
2021/07/27 01:03:10;;;;;;;7.78;7.08;;;;;;;20.28;72.34;99948.17;1722622;81;21090;-56
2021/07/27 01:05:36;;;;;;;8.38;7.75;;;;;;;20.27;72.31;99948.30;1721010;81;21073;-53
2021/07/27 01:08:04;;;;;;;7.50;6.83;;;;;;;20.25;72.45;99947.06;1721535;81;21045;-56
2021/07/27 01:10:30;;;;;;;10.55;8.90;;;;;;;20.24;72.46;99949.45;1721258;81;20910;-54
2021/07/27 01:12:58;;;;;;;8.75;7.60;;;;;;;20.22;72.53;99949.20;1718925;81;20975;-55
2021/07/27 01:15:26;;;;;;;10.65;6.83;;;;;;;20.20;72.56;99946.59;1721485;81;20876;-54
2021/07/27 01:18:00;;;;;;;8.48;5.60;;;;;;;20.19;72.61;99945.35;1722521;81;21022;-53
2021/07/27 01:20:31;;;;;;;5.55;5.05;;;;;;;20.16;72.54;99943.73;1722109;81;21024;-54
2021/07/27 01:44:29;;;;;;;5.85;5.45;;;;;;;19.98;72.53;99938.48;1724558;81;20907;-53
2021/07/27 01:46:56;;;;;;;6.05;5.53;;;;;;;19.98;72.55;99937.12;1726103;81;20974;-54
2021/07/27 01:49:22;;;;;;;7.87;5.95;;;;;;;20.00;72.61;99931.00;1720633;81;20966;-53
2021/07/27 01:51:49;;;;;;;7.17;6.53;;;;;;;20.02;72.60;99935.84;1720100;81;21068;-54
2021/07/27 01:54:16;;;;;;;8.55;6.80;;;;;;;20.01;72.61;99934.11;1722145;81;21077;-53
2021/07/27 01:56:46;;;;;;;8.58;7.80;;;;;;;20.00;72.56;99940.07;1723163;81;20867;-63
2021/07/27 01:59:13;;;;;;;10.95;7.40;;;;;;;19.99;72.43;99935.59;1724119;81;20985;-58
2021/07/27 02:01:40;;;;;;;7.05;6.55;;;;;;;19.99;72.35;99938.83;1720811;81;21073;-58
2021/07/27 02:04:06;;;;;;;5.22;4.78;;;;;;;19.97;72.29;99929.92;1724554;81;21002;-63
2021/07/27 02:06:32;;;;;;;6.70;5.72;;;;;;;19.95;72.25;99930.04;1724042;81;21440;-66
2021/07/27 02:09:05;;;;;;;10.20;6.22;;;;;;;19.96;72.27;99924.08;1719211;81;21675;-61
2021/07/27 02:11:35;;;;;;;8.53;6.05;;;;;;;19.95;72.33;99925.08;1716807;81;21101;-66
2021/07/27 02:13:55;;;;;;;6.72;6.03;;;;;;;19.95;72.40;99928.67;1717831;81;21471;-63
2021/07/27 02:16:23;;;;;;;6.97;6.20;;;;;;;19.96;72.41;99929.05;1726922;81;21022;-56
2021/07/27 02:18:51;;;;;;;10.08;8.33;;;;;;;19.98;72.41;99939.85;1725559;81;21062;-55
2021/07/27 02:21:17;;;;;;;8.13;7.42;;;;;;;19.97;72.42;99933.52;1721151;81;21121;-55
2021/07/27 02:23:44;;;;;;;9.45;6.75;;;;;;;19.99;72.40;99935.59;1718377;81;21112;-56
2021/07/27 02:26:10;;;;;;;10.85;8.63;;;;;;;20.00;72.40;99931.00;1655234;84;21109;-69
2021/07/27 02:28:36;;;;;;;8.40;7.53;;;;;;;20.00;72.54;99929.64;1720778;81;21600;-68
2021/07/27 02:31:06;;;;;;;10.15;7.25;;;;;;;19.98;72.56;99928.92;1720376;81;22523;-68
2021/07/27 02:33:39;;;;;;;8.80;8.00;;;;;;;19.97;72.54;99925.33;1718889;81;21161;-63
2021/07/27 02:36:03;;;;;;;8.28;7.12;;;;;;;19.98;72.49;99923.46;1719250;81;21080;-69
2021/07/27 02:38:29;;;;;;;9.05;8.10;;;;;;;19.99;72.53;99922.44;1719697;81;21708;-60
2021/07/27 02:40:55;;;;;;;9.63;8.60;;;;;;;19.99;72.58;99928.77;1716257;81;20998;-62
2021/07/27 02:43:22;;;;;;;9.60;8.23;;;;;;;19.99;72.61;99921.94;1720459;81;21558;-63
2021/07/27 02:45:48;;;;;;;11.18;9.83;;;;;;;19.99;72.61;99924.67;1721614;81;21585;-67
2021/07/27 02:48:14;;;;;;;9.45;8.55;;;;;;;19.99;72.60;99926.03;1718322;81;21113;-66
2021/07/27 02:50:46;;;;;;;10.23;7.60;;;;;;;19.98;72.56;99928.92;1724903;81;21691;-65
2021/07/27 02:53:14;;;;;;;8.43;7.60;;;;;;;20.00;72.54;99926.91;1730028;81;22334;-61
2021/07/27 02:55:41;;;;;;;12.75;7.05;;;;;;;19.99;72.60;99925.16;1720209;81;21078;-65
2021/07/27 02:58:19;;;;;;;7.95;7.17;;;;;;;20.00;72.62;99927.77;1718571;81;21054;-59
2021/07/27 03:00:45;;;;;;;14.05;9.03;;;;;;;20.02;72.58;99919.45;1724594;81;21084;-66
2021/07/27 03:03:12;;;;;;;9.38;8.58;;;;;;;20.03;72.52;99917.97;1721496;81;21113;-66
2021/07/27 03:05:38;;;;;;;12.63;9.70;;;;;;;20.04;72.53;99920.20;1720906;81;22203;-66
2021/07/27 03:08:11;;;;;;;10.93;9.88;;;;;;;20.03;72.47;99926.16;1718284;81;21631;-62
2021/07/27 03:10:36;;;;;;;11.05;10.00;;;;;;;20.05;72.54;99927.41;1723119;81;21006;-64
2021/07/27 03:13:03;;;;;;;8.35;7.75;;;;;;;20.06;72.51;99919.58;1722450;81;21355;-67
2021/07/27 03:15:30;;;;;;;9.08;7.28;;;;;;;20.07;72.57;99922.69;1719263;81;21104;-65
2021/07/27 03:17:59;;;;;;;8.65;7.83;;;;;;;20.10;72.66;99932.46;1717670;81;21105;-65
2021/07/27 03:20:29;;;;;;;8.40;7.25;;;;;;;20.10;72.70;99930.60;1720500;81;21421;-58
2021/07/27 03:22:56;;;;;;;8.93;8.23;;;;;;;20.12;72.71;99929.11;1723043;81;21046;-63
2021/07/27 03:25:23;;;;;;;10.75;8.90;;;;;;;20.13;72.66;99929.48;1721989;81;20929;-58
2021/07/27 03:27:50;;;;;;;9.33;8.50;;;;;;;20.15;72.66;99930.23;1718949;81;21403;-64
2021/07/27 03:30:18;;;;;;;11.20;9.78;;;;;;;20.17;72.57;99932.30;1719791;81;21659;-65
2021/07/27 03:32:45;;;;;;;8.83;8.03;;;;;;;20.19;72.69;99935.29;1721054;81;21585;-59
2021/07/27 03:35:15;;;;;;;10.08;8.25;;;;;;;20.20;72.70;99924.73;1721244;81;20927;-64
2021/07/27 03:37:42;;;;;;;8.08;7.22;;;;;;;20.22;72.63;99925.47;1710904;81;20968;-55
2021/07/27 03:40:09;;;;;;;8.13;7.37;;;;;;;20.24;72.61;99918.02;1714046;81;21550;-58
2021/07/27 03:42:37;;;;;;;6.72;6.17;;;;;;;20.25;72.68;99922.45;1721215;81;21105;-63
2021/07/27 03:45:05;;;;;;;9.05;8.30;;;;;;;20.26;72.54;99921.46;1708303;81;21041;-58
2021/07/27 03:47:31;;;;;;;9.30;8.00;;;;;;;20.29;72.66;99925.31;1710246;81;21073;-57
2021/07/27 03:49:57;;;;;;;10.28;9.28;;;;;;;20.31;72.62;99921.95;1709898;81;21100;-57
2021/07/27 03:52:24;;;;;;;13.30;9.73;;;;;;;20.34;72.60;99920.84;1708381;81;21128;-57
2021/07/27 03:54:51;;;;;;;11.18;8.53;;;;;;;20.35;72.56;99920.70;1711135;81;21523;-62
2021/07/27 03:57:17;;;;;;;8.90;8.10;;;;;;;20.36;72.48;99912.88;1712063;81;21689;-57
2021/07/27 03:59:43;;;;;;;9.38;7.95;;;;;;;20.38;72.59;99909.52;1711475;81;21668;-62
2021/07/27 04:02:10;;;;;;;8.98;7.97;;;;;;;20.42;72.73;99915.57;1675547;83;21072;-60
2021/07/27 04:04:36;;;;;;;21.27;7.67;;;;;;;20.45;72.85;99915.32;1711698;81;21041;-63
2021/07/27 04:07:03;;;;;;;13.88;8.00;;;;;;;20.47;72.88;99916.06;1709263;81;21541;-61
2021/07/27 04:09:30;;;;;;;8.95;8.13;;;;;;;20.49;72.77;99911.34;1708955;81;22186;-65
2021/07/27 04:11:56;;;;;;;18.57;8.80;;;;;;;20.52;72.82;99913.78;1709834;81;21633;-60
2021/07/27 04:14:22;;;;;;;12.33;9.20;;;;;;;20.57;72.85;99909.30;1708803;81;21597;-63
2021/07/27 04:16:50;;;;;;;21.48;9.65;;;;;;;20.61;72.88;99908.88;1712453;81;21250;-67
2021/07/27 04:19:17;;;;;;;11.10;9.93;;;;;;;20.66;72.34;99908.50;1705824;81;22236;-55
2021/07/27 04:21:44;;;;;;;10.15;9.10;;;;;;;20.72;71.85;99905.22;1711289;81;21852;-60
2021/07/27 04:24:10;;;;;;;7.58;6.97;;;;;;;20.79;71.48;99907.77;1717012;81;21413;-62
2021/07/27 04:26:37;;;;;;;11.38;7.37;;;;;;;20.90;71.18;99910.44;1694345;82;21111;-66
2021/07/27 04:29:03;;;;;;;8.78;6.78;;;;;;;21.01;70.84;99904.02;1709986;81;21481;-64
2021/07/27 04:31:31;;;;;;;11.53;6.50;;;;;;;21.12;70.46;99903.91;1711123;81;22059;-64
2021/07/27 04:33:57;;;;;;;17.48;8.40;;;;;;;21.23;70.17;99890.67;1713117;81;21401;-62
2021/07/27 04:36:25;;;;;;;15.10;8.03;;;;;;;21.37;69.88;99899.86;1717776;81;20963;-63
2021/07/27 04:38:52;;;;;;;14.83;9.05;;;;;;;21.49;69.59;99898.26;1715824;81;20927;-65
2021/07/27 04:41:18;;;;;;;12.58;8.40;;;;;;;21.61;69.27;99900.86;1725829;82;20951;-66
2021/07/27 04:43:44;;;;;;;11.50;8.43;;;;;;;21.72;68.86;99893.41;1700750;82;21804;-61
2021/07/27 04:46:11;;;;;;;11.93;7.25;;;;;;;21.81;68.71;99895.30;1718714;81;20935;-64
2021/07/27 04:50:28;;;;;;;7.12;6.28;;;;;;;22.03;67.90;99889.23;1766152;79;28108;-65
2021/07/27 04:53:08;;;;;;;9.20;7.42;;;;;;;22.08;67.44;99891.03;1739463;81;20990;-67
2021/07/27 04:55:33;;;;;;;9.48;7.00;;;;;;;22.19;67.06;99892.27;1744648;81;21086;-67
2021/07/27 04:58:04;;;;;;;8.45;7.65;;;;;;;22.29;66.67;99893.11;1737791;81;21057;-68
2021/07/27 05:00:31;;;;;;;9.13;6.72;;;;;;;22.40;66.06;99892.97;1744536;81;21146;-66
2021/07/27 05:03:01;;;;;;;11.18;7.40;;;;;;;22.51;65.80;99894.70;1733669;80;20950;-67
2021/07/27 05:05:27;;;;;;;9.00;5.95;;;;;;;22.59;65.91;99894.32;1739355;80;21288;-66
2021/07/27 05:07:54;;;;;;;9.35;4.75;;;;;;;22.68;65.28;99887.08;1750441;81;20977;-67
2021/07/27 05:10:20;;;;;;;7.47;4.35;;;;;;;22.78;64.69;99890.71;1735326;81;21412;-66
2021/07/27 05:12:46;;;;;;;6.00;4.33;;;;;;;22.88;64.46;99892.06;1736673;80;21006;-67
2021/07/27 05:15:13;;;;;;;15.83;6.70;;;;;;;22.95;63.53;99887.70;1742002;81;21072;-68
2021/07/27 05:17:57;;;;;;;5.33;3.58;;;;;;;23.03;63.57;99885.58;1736341;80;21455;-67
2021/07/27 05:20:23;;;;;;;5.60;4.12;;;;;;;23.09;63.79;99888.58;1736508;81;21482;-67
2021/07/27 05:22:49;;;;;;;7.97;3.65;;;;;;;23.12;63.71;99891.03;1736306;81;21113;-66
2021/07/27 05:25:16;;;;;;;7.60;3.30;;;;;;;23.20;63.69;99894.40;1705527;82;21080;-67
2021/07/27 05:27:42;;;;;;;5.78;4.40;;;;;;;23.29;63.29;99884.75;1694538;82;21542;-66
2021/07/27 05:30:10;;;;;;;4.85;4.33;;;;;;;23.40;62.81;99895.52;1679561;84;21058;-67
2021/07/27 05:32:36;;;;;;;7.10;4.37;;;;;;;23.50;62.82;99897.38;1688721;82;23319;-68
2021/07/27 05:35:04;;;;;;;7.35;3.40;;;;;;;23.58;62.79;99895.59;1694682;82;21501;-67
2021/07/27 05:37:30;;;;;;;4.40;3.22;;;;;;;23.67;62.12;99893.81;1688360;83;21089;-66
2021/07/27 05:42:20;;;;;;;8.10;4.25;;;;;;;23.89;60.97;99893.40;1830347;75;21992;-55
2021/07/27 05:44:46;;;;;;;5.28;2.85;;;;;;;23.92;60.27;99894.44;1810687;77;21365;-58
2021/07/27 05:47:12;;;;;;;5.00;4.00;;;;;;;24.01;59.98;99892.13;1745929;80;21141;-59
2021/07/27 05:49:39;;;;;;;8.38;3.95;;;;;;;24.08;59.27;99895.98;1771240;78;21000;-59
2021/07/27 05:52:06;;;;;;;5.22;3.22;;;;;;;24.17;58.66;99895.55;1749360;80;21396;-61
2021/07/27 05:54:33;;;;;;;5.65;4.00;;;;;;;24.23;58.24;99895.48;1767172;78;21065;-59
2021/07/27 05:56:59;;;;;;;3.87;3.58;;;;;;;24.32;58.78;99899.53;1764932;78;20980;-57
2021/07/27 05:59:25;;;;;;;4.20;3.83;;;;;;;24.38;58.14;99892.02;1756978;78;21445;-58
2021/07/27 06:01:52;;;;;;;4.70;2.95;;;;;;;24.46;57.95;99895.34;1769654;78;21404;-59
2021/07/27 06:04:19;;;;;;;4.42;3.08;;;;;;;24.52;57.50;99897.45;1742152;80;21102;-57
2021/07/27 06:06:45;;;;;;;8.20;3.47;;;;;;;24.59;57.21;99895.78;1760190;78;21046;-59
2021/07/27 06:09:12;;;;;;;3.62;3.33;;;;;;;24.67;57.28;99899.14;1764962;78;21137;-56
2021/07/27 06:11:38;;;;;;;7.72;3.58;;;;;;;24.72;56.28;99896.75;1760632;78;21806;-57
2021/07/27 06:14:04;;;;;;;5.78;3.67;;;;;;;24.78;56.09;99896.97;1724958;80;21130;-56
2021/07/27 06:16:31;;;;;;;10.03;3.92;;;;;;;24.84;55.48;99893.56;1745297;80;21556;-61
2021/07/27 06:18:58;;;;;;;4.45;3.95;;;;;;;24.91;56.05;99894.31;1739775;80;22010;-56
2021/07/27 06:21:24;;;;;;;6.00;3.15;;;;;;;24.98;55.93;99893.53;1760092;78;21075;-60
2021/07/27 06:23:50;;;;;;;7.85;3.60;;;;;;;25.05;55.67;99893.73;1748667;80;21108;-60
2021/07/27 06:26:16;;;;;;;6.00;3.35;;;;;;;25.11;55.41;99891.70;1767999;78;21360;-62
2021/07/27 06:28:43;;;;;;;11.57;3.25;;;;;;;25.18;55.79;99891.39;1761341;78;21066;-58
2021/07/27 06:31:13;;;;;;;9.25;3.83;;;;;;;25.26;55.21;99896.97;1738262;80;21310;-58
2021/07/27 06:33:43;;;;;;;5.47;3.55;;;;;;;25.34;54.87;99890.64;1759313;78;21018;-56
2021/07/27 06:36:09;;;;;;;11.73;4.05;;;;;;;25.44;54.94;99891.34;1745359;80;20972;-60
2021/07/27 06:38:36;;;;;;;5.80;3.65;;;;;;;25.53;54.39;99887.59;1768437;79;21371;-58
2021/07/27 06:41:08;;;;;;;7.05;3.80;;;;;;;25.62;54.81;99900.41;1754840;80;21326;-56
2021/07/27 06:43:34;;;;;;;3.98;2.52;;;;;;;25.70;53.94;99899.06;1724728;80;21503;-56
2021/07/27 06:46:01;;;;;;;5.12;3.10;;;;;;;25.81;54.51;99894.63;1725811;80;21775;-55
2021/07/27 06:48:27;;;;;;;7.28;3.47;;;;;;;25.89;53.56;99894.66;1727338;80;21665;-61
2021/07/27 06:50:54;;;;;;;3.50;2.20;;;;;;;25.98;53.15;99890.02;1735538;80;21578;-60
2021/07/27 06:53:20;;;;;;;4.40;2.20;;;;;;;26.05;52.77;99886.06;1735749;80;22433;-60
2021/07/27 06:55:47;;;;;;;4.03;2.30;;;;;;;26.12;52.75;99893.48;1737905;80;21695;-60
2021/07/27 06:58:13;;;;;;;2.80;2.60;;;;;;;26.20;52.69;99897.62;1736692;80;21081;-59
2021/07/27 07:00:40;;;;;;;5.33;2.98;;;;;;;26.28;53.19;99892.19;1739047;80;21235;-60
2021/07/27 07:03:07;;;;;;;4.72;2.65;;;;;;;26.36;53.75;99893.57;1737371;80;21688;-57
2021/07/27 07:05:33;;;;;;;7.12;3.27;;;;;;;26.46;52.78;99900.79;1739121;80;21059;-56
2021/07/27 07:08:00;;;;;;;7.37;2.50;;;;;;;26.55;52.83;99898.38;1733807;80;21053;-59
2021/07/27 07:10:26;;;;;;;4.10;2.62;;;;;;;26.61;51.41;99894.95;1739112;80;21004;-58
2021/07/27 07:12:54;;;;;;;3.08;1.87;;;;;;;26.69;51.09;99900.47;1715395;81;20981;-57
2021/07/27 07:15:22;;;;;;;2.77;2.58;;;;;;;26.77;50.48;99890.80;1750095;80;20942;-59
2021/07/27 07:17:49;;;;;;;3.98;2.25;;;;;;;26.85;50.15;99900.97;1731926;81;21425;-59
2021/07/27 07:20:15;;;;;;;3.60;2.17;;;;;;;26.91;50.23;99885.96;1737996;81;20938;-56
2021/07/27 07:22:42;;;;;;;4.03;2.40;;;;;;;26.97;50.26;99881.11;1729040;81;21432;-56
2021/07/27 07:25:09;;;;;;;6.37;2.22;;;;;;;27.05;50.83;99886.61;1734199;81;21092;-65
2021/07/27 07:27:35;;;;;;;6.12;2.58;;;;;;;27.14;49.85;99888.01;1730797;81;20977;-57
2021/07/27 07:30:01;;;;;;;3.05;1.57;;;;;;;27.23;49.89;99893.30;1731356;81;20973;-59
2021/07/27 07:32:27;;;;;;;4.30;2.33;;;;;;;27.31;49.72;99889.13;1731337;81;21395;-57
2021/07/27 07:34:54;;;;;;;3.37;1.82;;;;;;;27.38;47.84;99886.02;1736742;81;20928;-60
2021/07/27 07:37:20;;;;;;;3.70;2.40;;;;;;;27.44;47.76;99878.91;1753301;80;21351;-61
2021/07/27 07:39:46;;;;;;;2.70;2.17;;;;;;;27.50;47.78;99886.47;1758098;80;21485;-60
2021/07/27 07:42:13;;;;;;;3.20;1.90;;;;;;;27.56;48.05;99879.42;1735110;80;20993;-63
2021/07/27 07:44:39;;;;;;;4.50;1.98;;;;;;;27.64;47.74;99884.91;1763910;78;21102;-61
2021/07/27 07:47:05;;;;;;;6.72;2.05;;;;;;;27.71;47.65;99880.38;1761989;79;21071;-60
2021/07/27 07:49:32;;;;;;;3.65;1.95;;;;;;;27.79;47.81;99884.48;1746181;80;22096;-61
2021/07/27 07:52:00;;;;;;;2.35;1.98;;;;;;;27.85;47.27;99877.70;1738996;80;21113;-59
2021/07/27 07:54:26;;;;;;;5.10;2.08;;;;;;;27.91;46.22;99878.00;1740422;80;21067;-62
2021/07/27 07:56:53;;;;;;;2.00;1.80;;;;;;;27.97;46.65;99875.39;1766168;78;21030;-60
2021/07/27 07:59:19;;;;;;;2.25;2.05;;;;;;;28.04;46.38;99869.45;1744380;80;21055;-60
2021/07/27 08:01:48;;;;;;;4.95;1.90;;;;;;;28.11;45.34;99878.74;1769042;78;21157;-59
2021/07/27 08:04:16;;;;;;;7.47;2.02;;;;;;;28.17;45.08;99875.27;1762527;78;20961;-58
2021/07/27 08:06:42;;;;;;;13.03;3.12;;;;;;;28.25;45.13;99874.34;1757646;78;21085;-59
2021/07/27 08:09:10;;;;;;;6.85;2.42;;;;;;;28.32;45.55;99864.28;1765895;78;21808;-60
2021/07/27 08:11:39;;;;;;;4.30;2.90;;;;;;;28.41;45.54;99874.21;1762592;79;21019;-59
2021/07/27 08:14:06;;;;;;;3.30;2.30;;;;;;;28.49;45.26;99875.56;1744431;80;21277;-59
2021/07/27 08:16:34;;;;;;;16.55;2.58;;;;;;;28.57;45.02;99875.48;1736461;80;20980;-58
2021/07/27 08:19:03;;;;;;;3.83;2.00;;;;;;;28.64;44.47;99876.12;1760131;78;21056;-59
2021/07/27 08:21:29;;;;;;;5.30;2.12;;;;;;;28.69;43.14;99871.73;1729490;81;21064;-58
2021/07/27 08:23:55;;;;;;;2.55;2.35;;;;;;;28.72;44.59;99876.91;1738313;80;22309;-59
2021/07/27 08:26:22;;;;;;;8.55;2.95;;;;;;;28.78;44.53;99875.31;1762710;78;21613;-60
2021/07/27 08:28:49;;;;;;;9.05;3.58;;;;;;;28.84;43.90;99864.86;1765668;78;21893;-62
2021/07/27 08:31:16;;;;;;;3.22;2.77;;;;;;;28.91;43.23;99876.94;1761109;78;21697;-60
2021/07/27 08:33:42;;;;;;;3.80;2.05;;;;;;;28.98;42.93;99870.44;1726578;81;21049;-59
2021/07/27 08:36:09;;;;;;;3.85;2.45;;;;;;;29.05;42.63;99874.70;1737500;80;21103;-60
2021/07/27 08:38:36;;;;;;;2.22;1.85;;;;;;;29.11;42.92;99875.31;1766771;79;21137;-61
2021/07/27 08:41:04;;;;;;;2.80;2.52;;;;;;;29.19;41.86;99871.58;1764349;78;21055;-59
2021/07/27 08:43:31;;;;;;;7.22;2.27;;;;;;;29.22;42.18;99873.46;1732057;80;21638;-60
2021/07/27 08:45:57;;;;;;;2.85;2.25;;;;;;;29.26;42.14;99870.63;1728097;80;21559;-56
2021/07/27 08:48:24;;;;;;;2.70;1.80;;;;;;;29.32;42.37;99871.80;1732777;80;21012;-58
2021/07/27 08:50:50;;;;;;;10.53;2.15;;;;;;;29.39;42.73;99864.98;1727979;80;21090;-62
2021/07/27 08:53:17;;;;;;;2.52;2.33;;;;;;;29.46;41.63;99861.77;1709637;81;21060;-61
2021/07/27 08:55:44;;;;;;;8.93;2.30;;;;;;;29.52;42.23;99858.25;1704127;81;21053;-61
2021/07/27 08:58:10;;;;;;;2.65;2.00;;;;;;;29.58;42.64;99853.30;1702015;83;21069;-61
2021/07/27 09:00:36;;;;;;;8.23;2.90;;;;;;;29.64;41.63;99858.06;1705795;83;21188;-62
2021/07/27 09:03:16;;;;;;;5.33;2.00;;;;;;;29.68;41.16;99859.41;1731039;80;21112;-57
2021/07/27 09:05:43;;;;;;;4.58;2.30;;;;;;;29.72;41.42;99852.41;1728004;80;21508;-57
2021/07/27 09:08:10;;;;;;;3.52;1.52;;;;;;;29.76;40.11;99852.89;1729265;80;21530;-61
2021/07/27 09:10:38;;;;;;;4.65;2.10;;;;;;;29.79;39.89;99860.80;1728725;80;21124;-59
2021/07/27 09:13:07;;;;;;;5.55;1.67;;;;;;;29.81;39.74;99858.70;1730467;80;21070;-58
2021/07/27 09:15:36;;;;;;;8.70;1.90;;;;;;;29.84;40.12;99851.38;1734592;80;22016;-59
2021/07/27 09:18:08;;;;;;;3.05;1.65;;;;;;;29.88;40.20;99849.39;1729850;80;20933;-58
2021/07/27 09:20:39;;;;;;;6.37;2.00;;;;;;;29.92;39.06;99849.35;1734886;80;20875;-63
2021/07/27 09:23:14;;;;;;;18.02;2.90;;;;;;;29.94;38.79;99847.81;1729576;80;20988;-60
2021/07/27 09:25:50;;;;;;;;;;;;;;;29.96;38.73;99848.45;1729845;80;21107;-61
2021/07/27 09:28:17;;;;;;;2.50;1.47;;;;;;;29.99;38.97;99842.52;1725773;80;21123;-57
2021/07/27 09:30:45;;;;;;;4.08;1.62;;;;;;;30.01;39.05;99847.34;1730802;80;20957;-56
2021/07/27 09:33:13;;;;;;;4.72;1.80;;;;;;;30.04;39.19;99838.61;1731936;80;20981;-63
2021/07/27 09:35:43;;;;;;;8.95;1.85;;;;;;;30.08;39.71;99840.81;1728866;80;21442;-56
2021/07/27 09:38:16;;;;;;;7.87;2.75;;;;;;;30.14;39.82;99837.76;1726387;80;21753;-59
2021/07/27 09:40:55;;;;;;;1.95;1.67;;;;;;;30.17;39.07;99833.21;1732676;80;21079;-59
2021/07/27 09:43:23;;;;;;;6.17;2.35;;;;;;;30.21;39.07;99828.97;1760073;78;21366;-61
2021/07/27 09:45:52;;;;;;;6.10;2.22;;;;;;;30.26;38.58;99829.77;1738536;80;21249;-58
2021/07/27 09:48:20;;;;;;;8.13;2.17;;;;;;;30.27;38.72;99831.50;1741348;80;21028;-57
2021/07/27 09:50:50;;;;;;;8.30;1.90;;;;;;;30.29;38.75;99830.74;1763476;79;20951;-57
2021/07/27 09:53:16;;;;;;;4.83;1.52;;;;;;;30.33;38.89;99830.69;1761500;78;21769;-60
2021/07/27 09:55:42;;;;;;;4.92;2.10;;;;;;;30.37;38.67;99824.52;1763433;79;21433;-57
2021/07/27 09:58:09;;;;;;;2.37;1.67;;;;;;;30.40;39.08;99826.05;1737939;80;20946;-64
2021/07/27 10:00:46;;;;;;;3.70;1.80;;;;;;;30.43;39.08;99825.13;1739895;80;20945;-57
2021/07/27 10:03:12;;;;;;;9.50;1.77;;;;;;;30.46;38.72;99820.55;1735601;80;21035;-62
2021/07/27 10:05:38;;;;;;;3.00;1.90;;;;;;;30.49;37.62;99822.08;1739304;80;21030;-57
2021/07/27 10:08:05;;;;;;;14.07;2.20;;;;;;;30.50;38.11;99822.41;1742067;79;20962;-61
2021/07/27 10:10:43;;;;;;;6.28;1.50;;;;;;;30.51;37.54;99821.39;1737859;80;21056;-62
2021/07/27 10:13:13;;;;;;;6.35;1.80;;;;;;;30.51;37.02;99817.22;1737539;79;21072;-60
2021/07/27 10:15:46;;;;;;;4.28;1.05;;;;;;;30.49;36.88;99823.47;1741653;80;21001;-61
2021/07/27 10:18:13;;;;;;;2.30;1.32;;;;;;;30.50;36.44;99817.38;1763523;78;21621;-64
2021/07/27 10:20:39;;;;;;;1.72;1.10;;;;;;;30.50;36.98;99811.30;1738641;80;20934;-63
2021/07/27 10:23:20;;;;;;;1.37;1.17;;;;;;;30.53;36.82;99815.64;1761888;78;20916;-61
2021/07/27 10:25:54;;;;;;;4.70;1.57;;;;;;;30.55;35.84;99813.49;1735785;81;20926;-64
2021/07/27 10:28:23;;;;;;;4.20;1.30;;;;;;;30.55;36.60;99810.19;1763015;78;20980;-60
2021/07/27 10:30:49;;;;;;;5.65;1.27;;;;;;;30.57;36.63;99808.08;1761773;79;21077;-58
2021/07/27 10:33:15;;;;;;;2.30;1.20;;;;;;;30.61;36.50;99807.16;1765835;78;20940;-59
2021/07/27 10:35:42;;;;;;;2.95;1.27;;;;;;;30.62;36.00;99812.52;1760738;78;20923;-57
2021/07/27 10:38:15;;;;;;;3.77;1.47;;;;;;;30.64;36.10;99811.76;1761798;78;21656;-59
2021/07/27 10:40:44;;;;;;;7.87;1.70;;;;;;;30.66;35.99;99808.78;1766468;79;20951;-58
2021/07/27 10:43:11;;;;;;;6.28;1.12;;;;;;;30.69;36.14;99811.17;1764116;78;22352;-58
2021/07/27 10:45:37;;;;;;;13.00;1.52;;;;;;;30.70;36.88;99808.72;1744819;80;21068;-58
2021/07/27 10:48:04;;;;;;;9.30;1.60;;;;;;;30.74;36.27;99820.61;1759118;79;21082;-57
2021/07/27 10:50:32;;;;;;;8.45;2.67;;;;;;;30.78;35.45;99808.04;1745641;80;21136;-57
2021/07/27 10:53:06;;;;;;;2.25;1.02;;;;;;;30.81;34.73;99807.61;1752404;79;20984;-59
2021/07/27 10:55:33;;;;;;;3.27;1.20;;;;;;;30.84;35.89;99807.22;1742507;79;21630;-61
2021/07/27 10:58:02;;;;;;;7.60;2.30;;;;;;;30.88;35.10;99797.92;1747272;79;21072;-62
2021/07/27 11:00:30;;;;;;;3.25;1.35;;;;;;;30.92;35.61;99797.00;1741893;79;21131;-56
2021/07/27 11:02:57;;;;;;;1.57;1.47;;;;;;;30.96;35.81;99788.59;1744603;79;21068;-59
2021/07/27 11:05:27;;;;;;;3.77;1.57;;;;;;;30.99;35.97;99792.34;1741046;79;21124;-61
2021/07/27 11:07:55;;;;;;;5.55;1.30;;;;;;;30.97;36.06;99789.75;1742194;79;20969;-57
2021/07/27 11:10:23;;;;;;;3.20;1.35;;;;;;;30.90;35.46;99783.83;1742552;79;22452;-61
2021/07/27 11:12:49;;;;;;;3.55;1.20;;;;;;;30.80;36.15;99789.75;1747548;79;21493;-63
2021/07/27 11:15:26;;;;;;;1.60;1.25;;;;;;;30.71;36.42;99787.66;1760806;79;21494;-56
2021/07/27 11:17:59;;;;;;;1.95;1.12;;;;;;;30.66;36.49;99787.42;1743228;79;21056;-57
2021/07/27 11:20:33;;;;;;;3.33;1.20;;;;;;;30.57;36.62;99780.83;1740110;79;21104;-60
2021/07/27 11:23:09;;;;;;;2.87;1.70;;;;;;;30.50;35.94;99787.69;1745481;79;21119;-61
2021/07/27 11:25:35;;;;;;;3.08;1.32;;;;;;;30.43;35.95;99785.39;1744719;79;21111;-58
2021/07/27 11:28:15;;;;;;;3.95;1.22;;;;;;;30.38;36.60;99790.67;1742123;79;21068;-62
2021/07/27 11:30:42;;;;;;;4.40;1.10;;;;;;;30.40;37.26;99785.78;1741151;79;21107;-61
2021/07/27 11:33:12;;;;;;;3.25;1.20;;;;;;;30.47;36.94;99783.91;1742531;79;21522;-62
2021/07/27 11:35:49;;;;;;;2.42;1.10;;;;;;;30.51;37.36;99779.72;1743446;79;21734;-62
2021/07/27 11:38:32;;;;;;;9.90;1.15;;;;;;;30.60;37.52;99781.30;1742231;79;21132;-58
2021/07/27 11:41:09;;;;;;;2.50;1.10;;;;;;;30.69;36.95;99777.30;1742690;79;21072;-58
2021/07/27 11:43:39;;;;;;;2.47;1.10;;;;;;;30.81;36.80;99775.66;1748093;79;21055;-64
2021/07/27 11:46:16;;;;;;;6.28;1.10;;;;;;;30.91;36.45;99764.71;1740498;79;21573;-60
2021/07/27 11:48:43;;;;;;;3.55;1.00;;;;;;;30.96;36.35;99771.92;1746255;79;21235;-60
2021/07/27 11:51:10;;;;;;;3.75;0.90;;;;;;;31.02;36.72;99765.53;1746270;79;21118;-63
2021/07/27 11:53:39;;;;;;;7.97;1.10;;;;;;;31.07;37.13;99765.80;1742085;79;21127;-61
2021/07/27 11:56:17;;;;;;;3.15;1.12;;;;;;;31.10;37.05;99762.61;1743228;79;21097;-59
2021/07/27 11:58:48;;;;;;;8.05;1.30;;;;;;;31.13;36.82;99770.55;1742494;79;21117;-59
2021/07/27 12:01:15;;;;;;;2.30;1.90;;;;;;;31.07;35.74;99758.31;1741023;79;21511;-58